Forside
METAR-TAF:

METAR-TAF

Lufthavne :

Maputo, Mozambique

Breddekreds: 25-55S, længdekreds: 032-34E, højde: 39 m

Aktuelle vejr

Denne rapport blev lavet for 1 time og 6 minutter siden, kl. 15:00 UTC
Vind 11 kt fra øst
Temperatur 25°C
Fugtighed 65%
Tryk 1015 hPa
Sigt 10 km eller mere
Nogle få skyer i en højde af 2500 ft

METAR: FQMA 161500Z 09011KT 9999 FEW025 25/18 Q1015 NOSIG

Tid: 18:06 (16:06 UTC)

Vejrudsigter

Denne rapport blev lavet for 12 timer og 6 minutter siden, kl. 04:00 UTC
Foreløbig gælder fra 16 på 06 UTC til 17 på 12 UTC
Vind 12 kt fra østsydøst
Sigt 10 km eller mere
Spredte skyer i en højde af 2500 ft
ændring
fra 16 på 18 UTC til 16 på 20 UTC
Vind 8 kt fra øst
Brudte skyer i en højde af 2000 ft
ændring
fra 17 på 06 UTC til 17 på 08 UTC
Vind 12 kt fra syd
Spredte skyer i en højde af 1500 ft

TAF: FQMA 160400Z 1606/1712 12012KT 9999 SCT025 BECMG 1618/1620 09008KT BKN020 BECMG 1706/1708 19012KT SCT015 TX28/1613Z TN19/1703Z

Vejrobservationer og prognoser fra mere end 4000 lufthavne (METAR og TAF).

De gule og røde prikker repræsenterer de meteorologiske stationer.

Flyt musen over at se navnet på stationen.

Så klik over at se vejr observationer og prognoser.

At skifte det kort: Klik på de grønne knapper med et sort kors for at zoome ind; på den grønne knap med en bindestreg for at zoome ud; eller på de grønne pile for tilstødende kort.


METAR-TAF: